Aeroporto :
LOGIN :

Iscrizione | Disclaimer

   EN    FR    IT 

 










Sommario :    VFR   VFR Marginale   IFR   IFR Intensivo   IFR Molto Intensivo
Visibilità : 
Base nubi : 
>= 8 km
>= 3000ft
5 / 8 km
1000 / 3000 ft
1500m / 5 km
500 / 1000 ft
800 / 1500m
200 / 500 ft
< 800m
< 200 ft
Simboli :   Temporali  Nebbia  Neve Forte  Precipitazioni Forti  Vento > 20 kt
SIGMETs :   Varie  Temporali  Ghiacco  Turbolenza  Onda orograficha  Ceneri Vulcaniche






- Altitudine del aeroporto : 1400 ft


LSME - Luzern Emmen

ULTIMO METAR :
  • 170420Z AUTO 00000KT 9999NDV FEW120 03/01 Q1019 RMK

METARs OBSOLETI :
  • 170350Z AUTO VRB01KT 9999NDV FEW210 03/01 Q1020 RMK
  • 170320Z AUTO VRB02KT 9999NDV FEW210 03/01 Q1020 RMK
  • 170250Z AUTO 00000KT 9999NDV SCT200 04/02 Q1019 RMK
  • 170220Z AUTO VRB02KT 9999NDV FEW120 03/01 Q1020 RMK
  • 170150Z AUTO 12003KT 070V170 9999NDV FEW230 04/01 Q1020 RMK
  • 170120Z AUTO 22003KT 140V300 9999NDV NCD 05/02 Q1019 RMK

Previsioni scadute.



MetMap, La meteo Aeronautica in un colpo d'occhio ! - Copyright ORBIFLY Dicembre 2007 - Disclaimer

ORBIFLY MET'MAP TEAM :

Programmazione e sviluppo : Alexandra Zaïnal
Concezione : Baudouin d'Aumeries
Aiuto per la programmazione : Marc-Olivier Méhu
Supporto tecnico e logistico : Manuel Goepfert
Aiuto per la traduzione : Arnaldo La Scala

Contatto : metmap@orbifly.com




FONTI E CREDITI :

   NOAA